createdAt,value
2022-10-06T00:00:47.834Z,1003.4
2022-10-06T00:01:47.923Z,1003.52
2022-10-06T00:02:47.929Z,1003.52
2022-10-06T00:03:47.887Z,1003.47
2022-10-06T00:04:47.903Z,1003.54
2022-10-06T00:05:47.927Z,1003.5
2022-10-06T00:06:47.944Z,1003.53
2022-10-06T00:07:47.965Z,1003.61
2022-10-06T00:08:47.982Z,1003.59
2022-10-06T00:09:48.005Z,1003.67
2022-10-06T00:10:48.026Z,1003.69
2022-10-06T00:11:48.047Z,1003.6
2022-10-06T00:12:48.064Z,1003.66
2022-10-06T00:13:48.084Z,1003.63
2022-10-06T00:14:48.105Z,1003.68
2022-10-06T00:15:48.188Z,1003.66
2022-10-06T00:16:48.146Z,1003.67
2022-10-06T00:17:48.188Z,1003.74
2022-10-06T00:18:48.186Z,1003.74
2022-10-06T00:19:48.205Z,1003.76
2022-10-06T00:20:48.225Z,1003.79
2022-10-06T00:21:48.243Z,1003.81
2022-10-06T00:22:48.269Z,1003.77
2022-10-06T00:23:48.288Z,1003.83
2022-10-06T00:24:48.310Z,1003.84
2022-10-06T00:25:48.323Z,1003.91
2022-10-06T00:26:48.351Z,1003.98
2022-10-06T00:27:48.367Z,1004.01
2022-10-06T00:28:48.575Z,1004.07
2022-10-06T00:29:48.807Z,1004.35
2022-10-06T00:30:48.505Z,1004.56
2022-10-06T00:31:48.448Z,1004.49
2022-10-06T00:32:48.468Z,1004.57
2022-10-06T00:33:48.516Z,1004.57
2022-10-06T00:34:48.511Z,1004.51
2022-10-06T00:35:48.530Z,1004.53
2022-10-06T00:36:48.551Z,1004.56
2022-10-06T00:37:48.570Z,1004.63
2022-10-06T00:38:48.589Z,1004.63
2022-10-06T00:39:48.611Z,1004.66
2022-10-06T00:40:48.632Z,1004.66
2022-10-06T00:41:48.646Z,1004.73
2022-10-06T00:42:48.670Z,1004.74
2022-10-06T00:43:48.688Z,1004.72
2022-10-06T00:44:48.712Z,1004.82
2022-10-06T00:45:48.731Z,1004.81
2022-10-06T00:46:48.750Z,1004.94
2022-10-06T00:47:48.769Z,1004.97
2022-10-06T00:48:48.793Z,1005.02
2022-10-06T00:49:48.836Z,1004.99
2022-10-06T00:50:48.832Z,1004.99
2022-10-06T00:51:48.850Z,1005.06
2022-10-06T00:52:48.866Z,1005.02
2022-10-06T00:53:48.890Z,1005.01
2022-10-06T00:54:48.907Z,1005.08
2022-10-06T00:55:48.932Z,1005.15
2022-10-06T00:56:48.947Z,1005.1
2022-10-06T00:57:48.969Z,1005.15
2022-10-06T00:58:48.988Z,1005.09
2022-10-06T00:59:49.011Z,1005.15
2022-10-06T01:00:49.027Z,1005.08
2022-10-06T01:01:49.090Z,1005.08
2022-10-06T01:02:49.081Z,1005.14
2022-10-06T01:03:49.092Z,1005.1
2022-10-06T01:04:49.105Z,1005.1
2022-10-06T01:05:49.155Z,1005.09
2022-10-06T01:06:49.147Z,1005.07
2022-10-06T01:07:49.170Z,1005.06
2022-10-06T01:08:49.187Z,1005.08
2022-10-06T01:09:49.208Z,1005.07
2022-10-06T01:10:49.227Z,1005.1
2022-10-06T01:11:49.248Z,1005.12
2022-10-06T01:12:49.265Z,1005.1
2022-10-06T01:13:49.285Z,1005.1
2022-10-06T01:14:49.304Z,1005.07
2022-10-06T01:15:49.382Z,1005.13
2022-10-06T01:16:49.345Z,1005.17
2022-10-06T01:17:49.368Z,1005.23
2022-10-06T01:18:49.387Z,1005.23
2022-10-06T01:19:49.408Z,1005.17
2022-10-06T01:20:49.427Z,1005.14
2022-10-06T01:21:49.491Z,1005.14
2022-10-06T01:22:49.464Z,1005.15
2022-10-06T01:23:49.488Z,1005.16
2022-10-06T01:24:49.504Z,1005.14
2022-10-06T01:25:49.522Z,1005.18
2022-10-06T01:26:49.542Z,1005.18
2022-10-06T01:27:49.565Z,1005.15
2022-10-06T01:28:49.633Z,1005.19
2022-10-06T01:29:50.004Z,1005.2
2022-10-06T01:30:49.662Z,1005.25
2022-10-06T01:31:49.643Z,1005.24
2022-10-06T01:32:49.662Z,1005.21
2022-10-06T01:33:49.684Z,1005.27
2022-10-06T01:34:49.699Z,1005.29
2022-10-06T01:35:49.722Z,1005.35
2022-10-06T01:36:49.750Z,1005.39
2022-10-06T01:37:49.786Z,1005.33
2022-10-06T01:38:49.782Z,1005.39
2022-10-06T01:39:49.804Z,1005.39
2022-10-06T01:40:49.818Z,1005.4
2022-10-06T01:41:49.843Z,1005.46
2022-10-06T01:42:49.859Z,1005.46
2022-10-06T01:43:49.878Z,1005.53
2022-10-06T01:44:49.898Z,1005.47
2022-10-06T01:45:49.915Z,1005.51
2022-10-06T01:46:50.015Z,1005.54
2022-10-06T01:47:49.957Z,1005.53
2022-10-06T01:48:49.981Z,1005.5
2022-10-06T01:49:49.995Z,1005.51
2022-10-06T01:50:50.017Z,1005.54
2022-10-06T01:51:50.035Z,1005.55
2022-10-06T01:52:50.058Z,1005.53
2022-10-06T01:53:50.098Z,1005.61
2022-10-06T01:54:50.099Z,1005.58
2022-10-06T01:55:50.114Z,1005.58
2022-10-06T01:56:50.135Z,1005.54
2022-10-06T01:57:50.155Z,1005.57
2022-10-06T01:58:50.172Z,1005.61
2022-10-06T01:59:54.529Z,1005.63
2022-10-06T02:00:50.215Z,1005.61
2022-10-06T02:01:50.319Z,1005.58
2022-10-06T02:02:50.252Z,1005.59
2022-10-06T02:03:50.272Z,1005.66
2022-10-06T02:04:50.293Z,1005.66
2022-10-06T02:05:50.312Z,1005.7
2022-10-06T02:06:50.334Z,1005.69
2022-10-06T02:07:50.351Z,1005.7
2022-10-06T02:08:50.376Z,1005.72
2022-10-06T02:09:50.414Z,1005.76
2022-10-06T02:10:50.411Z,1005.79
2022-10-06T02:11:50.427Z,1005.81
2022-10-06T02:12:50.451Z,1005.74
2022-10-06T02:13:50.468Z,1005.73
2022-10-06T02:14:50.490Z,1005.8
2022-10-06T02:15:50.557Z,1005.85
2022-10-06T02:16:50.530Z,1005.84
2022-10-06T02:17:50.548Z,1005.81
2022-10-06T02:18:50.571Z,1005.81
2022-10-06T02:19:50.588Z,1005.85
2022-10-06T02:20:50.608Z,1005.89
2022-10-06T02:21:50.626Z,1005.89
2022-10-06T02:22:50.647Z,1005.93
2022-10-06T02:23:50.666Z,1005.92
2022-10-06T02:24:50.688Z,1005.92
2022-10-06T02:25:50.774Z,1005.95
2022-10-06T02:26:50.727Z,1006.02
2022-10-06T02:27:50.748Z,1006.04
2022-10-06T02:28:50.809Z,1006.08
2022-10-06T02:29:51.083Z,1006.04
2022-10-06T02:30:50.807Z,1006.08
2022-10-06T02:31:50.822Z,1006.09
2022-10-06T02:32:50.843Z,1006.1
2022-10-06T02:33:50.865Z,1006.19
2022-10-06T02:34:50.883Z,1006.22
2022-10-06T02:35:50.902Z,1006.29
2022-10-06T02:36:50.923Z,1006.28
2022-10-06T02:37:50.943Z,1006.26
2022-10-06T02:38:50.960Z,1006.26
2022-10-06T02:39:50.980Z,1006.28
2022-10-06T02:40:50.999Z,1006.32
2022-10-06T02:41:51.046Z,1006.34
2022-10-06T02:42:51.040Z,1006.36
2022-10-06T02:43:51.059Z,1006.32
2022-10-06T02:44:51.077Z,1006.34
2022-10-06T02:45:51.098Z,1006.34
2022-10-06T02:46:51.175Z,1006.36
2022-10-06T02:47:51.137Z,1006.4
2022-10-06T02:48:51.156Z,1006.42
2022-10-06T02:49:51.178Z,1006.42
2022-10-06T02:50:51.193Z,1006.46
2022-10-06T02:51:51.215Z,1006.46
2022-10-06T02:52:51.235Z,1006.48
2022-10-06T02:53:51.255Z,1006.53
2022-10-06T02:54:51.275Z,1006.54
2022-10-06T02:55:51.293Z,1006.58
2022-10-06T02:56:51.311Z,1006.54
2022-10-06T02:57:51.357Z,1006.6
2022-10-06T02:58:51.350Z,1006.6
2022-10-06T02:59:51.372Z,1006.6
2022-10-06T03:00:51.393Z,1006.58
2022-10-06T03:01:51.491Z,1006.61
2022-10-06T03:02:51.454Z,1006.58
2022-10-06T03:03:51.456Z,1006.64
2022-10-06T03:04:51.465Z,1006.64
2022-10-06T03:05:51.479Z,1006.72
2022-10-06T03:06:51.503Z,1006.74
2022-10-06T03:07:51.529Z,1006.8
2022-10-06T03:08:51.547Z,1006.75
2022-10-06T03:09:51.565Z,1006.72
2022-10-06T03:10:51.581Z,1006.72
2022-10-06T03:11:51.601Z,1006.74
2022-10-06T03:12:51.620Z,1006.79
2022-10-06T03:13:51.671Z,1006.8
2022-10-06T03:14:51.661Z,1006.8
2022-10-06T03:15:51.695Z,1006.83
2022-10-06T03:16:51.770Z,1006.9
2022-10-06T03:17:51.723Z,1006.96
2022-10-06T03:18:51.737Z,1006.93
2022-10-06T03:19:51.759Z,1006.96
2022-10-06T03:20:51.773Z,1006.93
2022-10-06T03:21:51.796Z,1006.94
2022-10-06T03:22:51.809Z,1006.96
2022-10-06T03:23:51.838Z,1006.94
2022-10-06T03:24:51.855Z,1006.97
2022-10-06T03:25:51.871Z,1007.03
2022-10-06T03:26:51.889Z,1007.04
2022-10-06T03:27:51.908Z,1007.05
2022-10-06T03:28:51.930Z,1007.07
2022-10-06T03:29:52.171Z,1007.08
2022-10-06T03:30:51.970Z,1007.07
2022-10-06T03:31:51.997Z,1007.11
2022-10-06T03:32:52.008Z,1007.08
2022-10-06T03:33:52.021Z,1007.04
2022-10-06T03:34:52.043Z,1007.08
2022-10-06T03:35:52.061Z,1007.06
2022-10-06T03:36:52.086Z,1007.12
2022-10-06T03:37:52.101Z,1007.2
2022-10-06T03:38:52.122Z,1007.21
2022-10-06T03:39:52.137Z,1007.21
2022-10-06T03:40:52.159Z,1007.17
2022-10-06T03:41:52.176Z,1007.21
2022-10-06T03:42:52.197Z,1007.23
2022-10-06T03:43:52.217Z,1007.22
2022-10-06T03:44:52.238Z,1007.18
2022-10-06T03:45:52.276Z,1007.22
2022-10-06T03:46:52.346Z,1007.17
2022-10-06T03:47:52.292Z,1007.2
2022-10-06T03:48:52.314Z,1007.29
2022-10-06T03:49:52.330Z,1007.25
2022-10-06T03:50:52.353Z,1007.25
2022-10-06T03:51:52.367Z,1007.23
2022-10-06T03:52:52.389Z,1007.28
2022-10-06T03:53:52.427Z,1007.26
2022-10-06T03:54:52.430Z,1007.27
2022-10-06T03:55:52.446Z,1007.34
2022-10-06T03:56:52.469Z,1007.37
2022-10-06T03:57:52.488Z,1007.33
2022-10-06T03:58:52.507Z,1007.39
2022-10-06T03:59:52.523Z,1007.4
2022-10-06T04:00:52.593Z,1007.39
2022-10-06T04:01:52.752Z,1007.43
2022-10-06T04:02:52.581Z,1007.5
2022-10-06T04:03:52.602Z,1007.52
2022-10-06T04:04:52.621Z,1007.55
2022-10-06T04:05:52.638Z,1007.64
2022-10-06T04:06:52.657Z,1007.62
2022-10-06T04:07:52.677Z,1007.58
2022-10-06T04:08:52.699Z,1007.61
2022-10-06T04:09:52.715Z,1007.63
2022-10-06T04:10:52.736Z,1007.65
2022-10-06T04:11:52.752Z,1007.7
2022-10-06T04:12:52.774Z,1007.65
2022-10-06T04:13:52.788Z,1007.67
2022-10-06T04:14:56.544Z,1007.75
2022-10-06T04:15:52.831Z,1007.76
2022-10-06T04:16:52.849Z,1007.77
2022-10-06T04:17:52.918Z,1007.81
2022-10-06T04:18:52.887Z,1007.84
2022-10-06T04:19:52.907Z,1007.85
2022-10-06T04:20:52.925Z,1007.89
2022-10-06T04:21:52.951Z,1007.89
2022-10-06T04:22:52.964Z,1007.86
2022-10-06T04:23:52.985Z,1007.85
2022-10-06T04:24:53.002Z,1007.9
2022-10-06T04:25:55.917Z,1007.9
2022-10-06T04:26:53.039Z,1007.96
2022-10-06T04:27:53.062Z,1007.96
2022-10-06T04:28:53.077Z,1007.96
2022-10-06T04:29:53.199Z,1008
2022-10-06T04:30:53.116Z,1008.03
2022-10-06T04:31:53.203Z,1008.06
2022-10-06T04:32:53.153Z,1008.05
2022-10-06T04:33:53.197Z,1008.1
2022-10-06T04:34:53.192Z,1008.06
2022-10-06T04:35:53.213Z,1008.12
2022-10-06T04:36:53.228Z,1008.14
2022-10-06T04:37:53.256Z,1008.16
2022-10-06T04:38:53.268Z,1008.19
2022-10-06T04:39:53.289Z,1008.16
2022-10-06T04:40:53.306Z,1008.25
2022-10-06T04:41:53.326Z,1008.23
2022-10-06T04:42:53.343Z,1008.24
2022-10-06T04:43:53.364Z,1008.26
2022-10-06T04:44:53.382Z,1008.23
2022-10-06T04:45:53.454Z,1008.29
2022-10-06T04:46:53.549Z,1008.29
2022-10-06T04:47:53.448Z,1008.26
2022-10-06T04:48:53.459Z,1008.26
2022-10-06T04:49:53.650Z,1008.26
2022-10-06T04:50:53.645Z,1008.26
2022-10-06T04:51:53.668Z,1008.33
2022-10-06T04:52:53.685Z,1008.35
2022-10-06T04:53:53.652Z,1008.36
2022-10-06T04:54:53.668Z,1008.39
2022-10-06T04:55:53.643Z,1008.39
2022-10-06T04:56:53.661Z,1008.37
2022-10-06T04:57:53.625Z,1008.38
2022-10-06T04:58:53.645Z,1008.39
2022-10-06T04:59:53.722Z,1008.39
2022-10-06T05:00:53.769Z,1008.47
2022-10-06T05:01:53.751Z,1008.46
2022-10-06T05:02:53.719Z,1008.48
2022-10-06T05:03:53.746Z,1008.51
2022-10-06T05:04:53.764Z,1008.53
2022-10-06T05:05:53.913Z,1008.57
2022-10-06T05:06:53.795Z,1008.62
2022-10-06T05:07:53.813Z,1008.58
2022-10-06T05:08:53.838Z,1008.6
2022-10-06T05:09:53.852Z,1008.63
2022-10-06T05:10:53.873Z,1008.64
2022-10-06T05:11:53.891Z,1008.66
2022-10-06T05:12:53.910Z,1008.66
2022-10-06T05:13:53.964Z,1008.67
2022-10-06T05:14:53.950Z,1008.69
2022-10-06T05:15:53.968Z,1008.71
2022-10-06T05:16:54.029Z,1008.76
2022-10-06T05:17:54.005Z,1008.81
2022-10-06T05:18:54.026Z,1008.83
2022-10-06T05:19:54.042Z,1008.83
2022-10-06T05:20:54.065Z,1008.81
2022-10-06T05:21:54.109Z,1008.81
2022-10-06T05:22:54.105Z,1008.8
2022-10-06T05:23:54.122Z,1008.82
2022-10-06T05:24:54.140Z,1008.88
2022-10-06T05:25:54.156Z,1008.88
2022-10-06T05:26:56.330Z,1008.93
2022-10-06T05:27:54.195Z,1008.92
2022-10-06T05:28:54.219Z,1008.97
2022-10-06T05:29:54.437Z,1009.03
2022-10-06T05:30:54.253Z,1009.07
2022-10-06T05:31:54.314Z,1009.05
2022-10-06T05:32:54.291Z,1009.07
2022-10-06T05:33:54.310Z,1009.08
2022-10-06T05:34:54.331Z,1009.1
2022-10-06T05:35:54.345Z,1009.09
2022-10-06T05:36:54.366Z,1009.08
2022-10-06T05:37:54.413Z,1009.13
2022-10-06T05:38:54.408Z,1009.13
2022-10-06T05:39:54.419Z,1009.2
2022-10-06T05:40:54.444Z,1009.2
2022-10-06T05:41:54.463Z,1009.2
2022-10-06T05:42:54.485Z,1009.25
2022-10-06T05:43:54.502Z,1009.29
2022-10-06T05:44:54.520Z,1009.31
2022-10-06T05:45:54.567Z,1009.33
2022-10-06T05:46:54.559Z,1009.35
2022-10-06T05:47:54.576Z,1009.33
2022-10-06T05:48:54.599Z,1009.35
2022-10-06T05:49:54.612Z,1009.42
2022-10-06T05:50:54.634Z,1009.39
2022-10-06T05:51:54.652Z,1009.39
2022-10-06T05:52:54.675Z,1009.43
2022-10-06T05:53:54.722Z,1009.44
2022-10-06T05:54:54.714Z,1009.47
2022-10-06T05:55:54.728Z,1009.47
2022-10-06T05:56:54.748Z,1009.53
2022-10-06T05:57:54.764Z,1009.58
2022-10-06T05:58:54.783Z,1009.54
2022-10-06T05:59:54.804Z,1009.6
2022-10-06T06:00:54.821Z,1009.61
2022-10-06T06:01:54.946Z,1009.55
2022-10-06T06:02:54.906Z,1009.61
2022-10-06T06:03:54.880Z,1009.67
2022-10-06T06:04:54.897Z,1009.68
2022-10-06T06:05:54.919Z,1009.74
2022-10-06T06:06:54.935Z,1009.68
2022-10-06T06:07:54.956Z,1009.7
2022-10-06T06:08:54.972Z,1009.72
2022-10-06T06:09:55.017Z,1009.73
2022-10-06T06:10:55.014Z,1009.77
2022-10-06T06:11:55.044Z,1009.79
2022-10-06T06:12:55.052Z,1009.81
2022-10-06T06:13:55.069Z,1009.85
2022-10-06T06:14:55.086Z,1009.87
2022-10-06T06:15:55.107Z,1009.92
2022-10-06T06:16:55.170Z,1009.89
2022-10-06T06:17:55.147Z,1009.87
2022-10-06T06:18:55.162Z,1009.94
2022-10-06T06:19:55.183Z,1009.9
2022-10-06T06:20:55.205Z,1009.96
2022-10-06T06:21:55.220Z,1009.96
2022-10-06T06:22:55.239Z,1010
2022-10-06T06:23:55.262Z,1010.01
2022-10-06T06:24:55.275Z,1010.01
2022-10-06T06:25:58.758Z,1010
2022-10-06T06:26:55.313Z,1010.07
2022-10-06T06:27:55.352Z,1010.06
2022-10-06T06:28:55.411Z,1010.07
2022-10-06T06:29:55.670Z,1010.1
2022-10-06T06:30:55.443Z,1010.07
2022-10-06T06:31:55.410Z,1010.09
2022-10-06T06:32:55.426Z,1010.18
2022-10-06T06:33:55.446Z,1010.13
2022-10-06T06:34:55.464Z,1010.17
2022-10-06T06:35:55.483Z,1010.19
2022-10-06T06:36:55.499Z,1010.21
2022-10-06T06:37:55.525Z,1010.21
2022-10-06T06:38:55.540Z,1010.25
2022-10-06T06:39:55.559Z,1010.27
2022-10-06T06:40:55.576Z,1010.22
2022-10-06T06:41:55.637Z,1010.28
2022-10-06T06:42:55.616Z,1010.31
2022-10-06T06:43:55.641Z,1010.31
2022-10-06T06:44:55.652Z,1010.32
2022-10-06T06:45:55.755Z,1010.35
2022-10-06T06:46:55.692Z,1010.39
2022-10-06T06:47:55.709Z,1010.38
2022-10-06T06:48:55.727Z,1010.37
2022-10-06T06:49:55.746Z,1010.39
2022-10-06T06:50:55.769Z,1010.4
2022-10-06T06:51:55.787Z,1010.43
2022-10-06T06:52:55.806Z,1010.46
2022-10-06T06:53:55.824Z,1010.54
2022-10-06T06:54:55.845Z,1010.57
2022-10-06T06:55:55.861Z,1010.56
2022-10-06T06:56:55.882Z,1010.58
2022-10-06T06:57:55.922Z,1010.61
2022-10-06T06:58:55.919Z,1010.62
2022-10-06T06:59:55.937Z,1010.65
2022-10-06T07:00:55.984Z,1010.67
2022-10-06T07:01:56.004Z,1010.68
2022-10-06T07:02:55.995Z,1010.67
2022-10-06T07:03:57.424Z,1010.73
2022-10-06T07:04:56.032Z,1010.73
2022-10-06T07:05:56.049Z,1010.74
2022-10-06T07:06:56.071Z,1010.79
2022-10-06T07:07:56.085Z,1010.77
2022-10-06T07:08:56.109Z,1010.8
2022-10-06T07:09:56.124Z,1010.83
2022-10-06T07:10:56.148Z,1010.84
2022-10-06T07:11:56.179Z,1010.86
2022-10-06T07:12:56.183Z,1010.86
2022-10-06T07:13:56.272Z,1010.9
2022-10-06T07:14:56.222Z,1010.94
2022-10-06T07:15:56.281Z,1010.96
2022-10-06T07:16:56.263Z,1010.95
2022-10-06T07:17:56.280Z,1010.93
2022-10-06T07:18:56.297Z,1010.95
2022-10-06T07:19:56.319Z,1010.99
2022-10-06T07:20:56.335Z,1011
2022-10-06T07:21:56.353Z,1011.03
2022-10-06T07:22:56.375Z,1011.01
2022-10-06T07:23:56.390Z,1011
2022-10-06T07:24:56.415Z,1011.09
2022-10-06T07:25:56.429Z,1011.12
2022-10-06T07:26:56.451Z,1011.13
2022-10-06T07:27:56.516Z,1011.15
2022-10-06T07:28:56.487Z,1011.15
2022-10-06T07:29:57.156Z,1011.16
2022-10-06T07:30:56.563Z,1011.16
2022-10-06T07:31:56.541Z,1011.23
2022-10-06T07:32:56.565Z,1011.24
2022-10-06T07:33:56.579Z,1011.25
2022-10-06T07:34:56.829Z,1011.26
2022-10-06T07:35:56.621Z,1011.28
2022-10-06T07:36:56.637Z,1011.24
2022-10-06T07:37:56.656Z,1011.3
2022-10-06T07:38:56.680Z,1011.35
2022-10-06T07:39:56.695Z,1011.37
2022-10-06T07:41:56.737Z,1011.39
2022-10-06T07:42:56.752Z,1011.35
2022-10-06T07:43:56.772Z,1011.38
2022-10-06T07:44:56.790Z,1011.44
2022-10-06T07:45:56.854Z,1011.43
2022-10-06T07:46:56.828Z,1011.43
2022-10-06T07:47:56.850Z,1011.46
2022-10-06T07:48:56.866Z,1011.48
2022-10-06T07:49:56.886Z,1011.5
2022-10-06T07:50:56.908Z,1011.53
2022-10-06T07:51:56.928Z,1011.54
2022-10-06T07:52:56.944Z,1011.56
2022-10-06T07:53:56.966Z,1011.55
2022-10-06T07:54:57.091Z,1011.55
2022-10-06T07:55:57.020Z,1011.58
2022-10-06T07:56:57.019Z,1011.58
2022-10-06T07:57:57.038Z,1011.54
2022-10-06T07:58:57.057Z,1011.6
2022-10-06T08:00:00.492Z,1011.6
2022-10-06T08:00:57.098Z,1011.6
2022-10-06T08:01:57.204Z,1011.62
2022-10-06T08:02:57.165Z,1011.62
2022-10-06T08:03:57.155Z,1011.62
2022-10-06T08:04:57.173Z,1011.66
2022-10-06T08:05:57.195Z,1011.71
2022-10-06T08:06:57.212Z,1011.72
2022-10-06T08:07:57.232Z,1011.73
2022-10-06T08:08:57.253Z,1011.72
2022-10-06T08:09:57.272Z,1011.7
2022-10-06T08:11:00.218Z,1011.74
2022-10-06T08:11:57.310Z,1011.75
2022-10-06T08:12:57.327Z,1011.81
2022-10-06T08:13:57.350Z,1011.81
2022-10-06T08:14:57.516Z,1011.83
2022-10-06T08:15:57.422Z,1011.84
2022-10-06T08:16:57.403Z,1011.84
2022-10-06T08:17:57.449Z,1011.8
2022-10-06T08:18:57.440Z,1011.89
2022-10-06T08:19:57.466Z,1011.83
2022-10-06T08:20:57.481Z,1011.83
2022-10-06T08:22:01.016Z,1011.87
2022-10-06T08:22:57.532Z,1011.84
2022-10-06T08:23:57.567Z,1011.89
2022-10-06T08:25:05.604Z,1011.89
2022-10-06T08:25:57.582Z,1011.87
2022-10-06T08:26:57.612Z,1011.88
2022-10-06T08:27:57.663Z,1011.95
2022-10-06T08:28:57.736Z,1011.99
2022-10-06T08:29:57.960Z,1011.96
2022-10-06T08:30:57.722Z,1011.99
2022-10-06T08:31:57.708Z,1012
2022-10-06T08:32:57.715Z,1012.04
2022-10-06T08:33:57.752Z,1012.05
2022-10-06T08:34:58.226Z,1012.02
2022-10-06T08:35:57.771Z,1012.04
2022-10-06T08:37:15.794Z,1012.05
2022-10-06T08:37:57.809Z,1012.01
2022-10-06T08:38:57.832Z,1012.07
2022-10-06T08:39:57.850Z,1012.12
2022-10-06T08:40:57.871Z,1012.12
2022-10-06T08:41:57.885Z,1012.13
2022-10-06T08:42:57.910Z,1012.17
2022-10-06T08:43:57.919Z,1012.17
2022-10-06T08:44:58.118Z,1012.13
2022-10-06T08:45:57.967Z,1012.2
2022-10-06T08:46:57.988Z,1012.15
2022-10-06T08:47:58.006Z,1012.17
2022-10-06T08:48:58.026Z,1012.22
2022-10-06T08:49:58.557Z,1012.24
2022-10-06T08:50:58.064Z,1012.24
2022-10-06T08:51:58.082Z,1012.27
2022-10-06T08:52:58.102Z,1012.26
2022-10-06T08:53:58.121Z,1012.27
2022-10-06T08:54:58.142Z,1012.24
2022-10-06T08:55:58.157Z,1012.27
2022-10-06T08:56:58.179Z,1012.29
2022-10-06T08:57:58.237Z,1012.27
2022-10-06T08:58:58.220Z,1012.28
2022-10-06T08:59:58.502Z,1012.35
2022-10-06T09:00:58.297Z,1012.35
2022-10-06T09:01:58.372Z,1012.34
2022-10-06T09:02:58.295Z,1012.39
2022-10-06T09:03:58.313Z,1012.38
2022-10-06T09:04:58.335Z,1012.4
2022-10-06T09:05:58.380Z,1012.42
2022-10-06T09:06:58.376Z,1012.46
2022-10-06T09:07:58.390Z,1012.48
2022-10-06T09:08:58.414Z,1012.47
2022-10-06T09:09:58.676Z,1012.47
2022-10-06T09:10:58.453Z,1012.53
2022-10-06T09:11:58.474Z,1012.5
2022-10-06T09:12:58.493Z,1012.57
2022-10-06T09:13:58.507Z,1012.55
2022-10-06T09:14:58.534Z,1012.54
2022-10-06T09:15:58.566Z,1012.57
2022-10-06T09:16:58.572Z,1012.57
2022-10-06T09:17:58.588Z,1012.57
2022-10-06T09:19:13.937Z,1012.61
2022-10-06T09:19:58.762Z,1012.62
2022-10-06T09:20:58.649Z,1012.65
2022-10-06T09:21:58.687Z,1012.66
2022-10-06T09:22:58.688Z,1012.67
2022-10-06T09:23:58.718Z,1012.68
2022-10-06T09:24:58.723Z,1012.63
2022-10-06T09:25:58.746Z,1012.64
2022-10-06T09:26:58.768Z,1012.63
2022-10-06T09:27:58.838Z,1012.69
2022-10-06T09:28:58.806Z,1012.7
2022-10-06T09:29:59.154Z,1012.7
2022-10-06T09:30:58.868Z,1012.72
2022-10-06T09:31:58.863Z,1012.63
2022-10-06T09:32:58.879Z,1012.71
2022-10-06T09:33:58.905Z,1012.7
2022-10-06T09:34:58.921Z,1012.74
2022-10-06T09:35:58.941Z,1012.72
2022-10-06T09:37:01.507Z,1012.73
2022-10-06T09:37:59.015Z,1012.69
2022-10-06T09:38:59.001Z,1012.73
2022-10-06T09:39:59.343Z,1012.71
2022-10-06T09:40:59.039Z,1012.77
2022-10-06T09:41:59.062Z,1012.72
2022-10-06T09:42:59.076Z,1012.7
2022-10-06T09:43:59.099Z,1012.65
2022-10-06T09:44:59.117Z,1012.74
2022-10-06T09:45:59.198Z,1012.76
2022-10-06T09:46:59.159Z,1012.72
2022-10-06T09:47:59.180Z,1012.76
2022-10-06T09:48:59.196Z,1012.73
2022-10-06T09:49:59.219Z,1012.75
2022-10-06T09:50:59.233Z,1012.78
2022-10-06T09:51:59.259Z,1012.79
2022-10-06T09:52:59.274Z,1012.74
2022-10-06T09:53:59.321Z,1012.78
2022-10-06T09:54:59.323Z,1012.72
2022-10-06T09:55:59.335Z,1012.73
2022-10-06T09:56:59.353Z,1012.76
2022-10-06T09:57:59.376Z,1012.82
2022-10-06T09:58:59.393Z,1012.8
2022-10-06T09:59:59.675Z,1012.8
2022-10-06T10:00:59.464Z,1012.82
2022-10-06T10:01:59.454Z,1012.87
2022-10-06T10:02:59.533Z,1012.89
2022-10-06T10:04:19.242Z,1012.89
2022-10-06T10:04:59.517Z,1012.89
2022-10-06T10:05:59.536Z,1012.87
2022-10-06T10:06:59.552Z,1012.93
2022-10-06T10:07:59.576Z,1012.93
2022-10-06T10:08:59.601Z,1012.97
2022-10-06T10:09:59.799Z,1012.97
2022-10-06T10:10:59.635Z,1012.93
2022-10-06T10:11:59.679Z,1012.98
2022-10-06T10:12:59.671Z,1012.96
2022-10-06T10:13:59.693Z,1012.96
2022-10-06T10:14:59.714Z,1012.97
2022-10-06T10:15:59.817Z,1012.98
2022-10-06T10:16:59.750Z,1013.01
2022-10-06T10:17:59.771Z,1013.02
2022-10-06T10:18:59.791Z,1012.99
2022-10-06T10:20:00.060Z,1013.05
2022-10-06T10:20:59.832Z,1013.04
2022-10-06T10:22:00.061Z,1013.05
2022-10-06T10:22:59.869Z,1013.04
2022-10-06T10:23:59.887Z,1013.06
2022-10-06T10:24:59.913Z,1013.05
2022-10-06T10:25:59.953Z,1013.06
2022-10-06T10:26:59.949Z,1013.08
2022-10-06T10:27:59.989Z,1013.04
2022-10-06T10:28:59.991Z,1013.09
2022-10-06T10:30:00.264Z,1013.09
2022-10-06T10:31:00.093Z,1013.06
2022-10-06T10:32:00.070Z,1013.06
2022-10-06T10:33:00.089Z,1013.12
2022-10-06T10:34:12.243Z,1013.13
2022-10-06T10:35:00.386Z,1013.1
2022-10-06T10:36:00.127Z,1013.06
2022-10-06T10:37:00.147Z,1013.11
2022-10-06T10:38:00.168Z,1013.08
2022-10-06T10:39:00.190Z,1013.06
2022-10-06T10:40:00.210Z,1013.13
2022-10-06T10:41:00.229Z,1013.14
2022-10-06T10:42:00.268Z,1013.09
2022-10-06T10:43:00.267Z,1013.11
2022-10-06T10:44:03.917Z,1013.11
2022-10-06T10:45:00.493Z,1013.16
2022-10-06T10:46:00.325Z,1013.15
2022-10-06T10:47:00.493Z,1013.18
2022-10-06T10:48:00.365Z,1013.14
2022-10-06T10:49:00.384Z,1013.19
2022-10-06T10:50:00.412Z,1013.22
2022-10-06T10:51:00.434Z,1013.18
2022-10-06T10:52:00.446Z,1013.23
2022-10-06T10:53:00.466Z,1013.25
2022-10-06T10:54:00.486Z,1013.25
2022-10-06T10:55:00.686Z,1013.29
2022-10-06T10:56:00.520Z,1013.27
2022-10-06T10:57:00.549Z,1013.26
2022-10-06T10:58:00.587Z,1013.27
2022-10-06T10:59:00.585Z,1013.23
2022-10-06T11:00:00.598Z,1013.23
2022-10-06T11:01:00.637Z,1013.25
2022-10-06T11:02:00.658Z,1013.21
2022-10-06T11:03:00.663Z,1013.24
2022-10-06T11:04:00.689Z,1013.19
2022-10-06T11:05:01.050Z,1013.15
2022-10-06T11:06:00.725Z,1013.2
2022-10-06T11:07:00.742Z,1013.22
2022-10-06T11:08:00.763Z,1013.16
2022-10-06T11:09:00.782Z,1013.19
2022-10-06T11:10:00.802Z,1013.23
2022-10-06T11:11:00.823Z,1013.18
2022-10-06T11:12:00.842Z,1013.19
2022-10-06T11:13:00.862Z,1013.19
2022-10-06T11:14:00.906Z,1013.21
2022-10-06T11:15:01.258Z,1013.2
2022-10-06T11:16:00.946Z,1013.22
2022-10-06T11:17:00.943Z,1013.23
2022-10-06T11:18:00.964Z,1013.19
2022-10-06T11:19:00.981Z,1013.27
2022-10-06T11:20:01.006Z,1013.23
2022-10-06T11:21:01.034Z,1013.24
2022-10-06T11:22:01.046Z,1013.3
2022-10-06T11:23:01.061Z,1013.27
2022-10-06T11:24:01.085Z,1013.32
2022-10-06T11:25:01.579Z,1013.3
2022-10-06T11:26:01.125Z,1013.3
2022-10-06T11:27:01.143Z,1013.3
2022-10-06T11:28:01.202Z,1013.24
2022-10-06T11:29:01.185Z,1013.22
2022-10-06T11:30:01.685Z,1013.24
2022-10-06T11:31:01.408Z,1013.22
2022-10-06T11:32:01.288Z,1013.22
2022-10-06T11:33:01.263Z,1013.24
2022-10-06T11:34:01.284Z,1013.29
2022-10-06T11:35:01.309Z,1013.28
2022-10-06T11:36:01.327Z,1013.26
2022-10-06T11:37:01.442Z,1013.24
2022-10-06T11:38:01.371Z,1013.26
2022-10-06T11:39:01.383Z,1013.22
2022-10-06T11:40:01.738Z,1013.28
2022-10-06T11:41:02.145Z,1013.3
2022-10-06T11:42:01.446Z,1013.32
2022-10-06T11:43:01.466Z,1013.32
2022-10-06T11:44:01.486Z,1013.3
2022-10-06T11:45:01.643Z,1013.27
2022-10-06T11:46:01.622Z,1013.3
2022-10-06T11:47:01.548Z,1013.32
2022-10-06T11:48:01.570Z,1013.32
2022-10-06T11:49:01.594Z,1013.31
2022-10-06T11:50:01.609Z,1013.27
2022-10-06T11:51:01.638Z,1013.28
2022-10-06T11:52:04.540Z,1013.28
2022-10-06T11:53:01.670Z,1013.25
2022-10-06T11:54:01.681Z,1013.22
2022-10-06T11:55:02.070Z,1013.22
2022-10-06T11:56:01.730Z,1013.21
2022-10-06T11:57:01.754Z,1013.18
2022-10-06T11:58:05.491Z,1013.25
2022-10-06T11:59:01.792Z,1013.21
2022-10-06T12:00:01.813Z,1013.2
2022-10-06T12:01:01.831Z,1013.14
2022-10-06T12:02:01.989Z,1013.17
2022-10-06T12:03:01.935Z,1013.19
2022-10-06T12:04:01.890Z,1013.18
2022-10-06T12:05:02.152Z,1013.18
2022-10-06T12:06:01.930Z,1013.23
2022-10-06T12:07:01.952Z,1013.2
2022-10-06T12:08:01.975Z,1013.3
2022-10-06T12:09:01.999Z,1013.25
2022-10-06T12:10:02.018Z,1013.21